createdAt,value
2023-03-29T00:00:03.270Z,89.19
2023-03-29T00:00:13.736Z,89.29
2023-03-29T00:00:24.256Z,89.25
2023-03-29T00:00:34.752Z,89.40
2023-03-29T00:00:45.251Z,89.50
2023-03-29T00:00:55.751Z,89.50
2023-03-29T00:01:06.266Z,89.40
2023-03-29T00:01:34.892Z,89.29
2023-03-29T00:01:35.013Z,89.29
2023-03-29T00:01:38.777Z,89.19
2023-03-29T00:01:48.293Z,89.19
2023-03-29T00:01:58.864Z,89.29
2023-03-29T00:02:09.347Z,89.29
2023-03-29T00:02:19.952Z,89.29
2023-03-29T00:02:30.665Z,89.29
2023-03-29T00:02:40.860Z,89.29
2023-03-29T00:02:51.387Z,89.29
2023-03-29T00:03:01.935Z,89.29
2023-03-29T00:03:12.422Z,89.29
2023-03-29T00:03:22.988Z,89.40
2023-03-29T00:03:33.436Z,89.50
2023-03-29T00:03:43.977Z,89.71
2023-03-29T00:03:54.455Z,89.71
2023-03-29T00:04:05.011Z,89.71
2023-03-29T00:04:15.445Z,89.71
2023-03-29T00:04:25.949Z,89.71
2023-03-29T00:04:36.474Z,89.61
2023-03-29T00:04:46.981Z,89.50
2023-03-29T00:04:57.417Z,89.50
2023-03-29T00:05:07.930Z,89.40
2023-03-29T00:05:18.440Z,89.40
2023-03-29T00:05:28.962Z,89.50
2023-03-29T00:05:39.452Z,89.50
2023-03-29T00:05:49.958Z,89.50
2023-03-29T00:06:00.469Z,89.50
2023-03-29T00:06:10.972Z,89.50
2023-03-29T00:06:21.473Z,89.61
2023-03-29T00:06:31.977Z,89.71
2023-03-29T00:06:42.494Z,89.71
2023-03-29T00:06:53.003Z,89.71
2023-03-29T00:07:03.497Z,89.71
2023-03-29T00:07:14.010Z,89.71
2023-03-29T00:07:24.509Z,89.71
2023-03-29T00:07:35.021Z,89.71
2023-03-29T00:07:45.531Z,89.81
2023-03-29T00:07:56.037Z,89.92
2023-03-29T00:08:06.542Z,90.02
2023-03-29T00:08:17.041Z,89.92
2023-03-29T00:08:27.549Z,89.92
2023-03-29T00:08:38.101Z,89.92
2023-03-29T00:08:48.558Z,89.81
2023-03-29T00:08:59.070Z,89.71
2023-03-29T00:09:09.597Z,89.71
2023-03-29T00:09:20.089Z,89.71
2023-03-29T00:09:30.582Z,89.71
2023-03-29T00:09:41.125Z,89.71
2023-03-29T00:09:51.593Z,89.81
2023-03-29T00:10:02.110Z,89.81
2023-03-29T00:10:12.607Z,89.71
2023-03-29T00:10:23.126Z,89.50
2023-03-29T00:10:33.669Z,89.50
2023-03-29T00:10:44.126Z,89.50
2023-03-29T00:10:54.632Z,89.61
2023-03-29T00:11:05.275Z,89.61
2023-03-29T00:11:15.638Z,89.50
2023-03-29T00:11:26.144Z,89.50
2023-03-29T00:11:36.646Z,89.61
2023-03-29T00:11:47.162Z,89.61
2023-03-29T00:11:57.656Z,89.61
2023-03-29T00:12:08.170Z,89.61
2023-03-29T00:12:18.680Z,89.61
2023-03-29T00:12:29.202Z,89.61
2023-03-29T00:12:39.682Z,89.61
2023-03-29T00:12:50.192Z,89.61
2023-03-29T00:13:00.694Z,89.71
2023-03-29T00:13:11.234Z,89.71
2023-03-29T00:13:21.705Z,89.71
2023-03-29T00:13:32.215Z,89.81
2023-03-29T00:13:42.727Z,89.92
2023-03-29T00:13:53.223Z,90.02
2023-03-29T00:14:03.753Z,90.23
2023-03-29T00:14:14.245Z,90.33
2023-03-29T00:14:24.747Z,90.44
2023-03-29T00:14:35.255Z,90.44
2023-03-29T00:14:45.767Z,90.54
2023-03-29T00:14:56.307Z,90.54
2023-03-29T00:15:06.782Z,90.54
2023-03-29T00:15:17.289Z,90.54
2023-03-29T00:15:27.786Z,90.44
2023-03-29T00:15:38.335Z,90.33
2023-03-29T00:15:48.809Z,90.23
2023-03-29T00:15:59.315Z,90.23
2023-03-29T00:16:09.825Z,90.23
2023-03-29T00:16:20.347Z,90.33
2023-03-29T00:16:30.862Z,90.64
2023-03-29T00:16:41.412Z,90.75
2023-03-29T00:16:51.989Z,90.85
2023-03-29T00:17:02.393Z,90.85
2023-03-29T00:17:12.981Z,90.85
2023-03-29T00:17:23.407Z,90.85
2023-03-29T00:17:33.923Z,90.75
2023-03-29T00:17:44.430Z,90.75
2023-03-29T00:17:54.963Z,90.64
2023-03-29T00:18:05.436Z,90.64
2023-03-29T00:18:15.913Z,90.54
2023-03-29T00:18:26.421Z,90.64
2023-03-29T00:18:36.930Z,90.64
2023-03-29T00:18:47.446Z,90.75
2023-03-29T00:18:57.943Z,90.85
2023-03-29T00:19:08.452Z,90.95
2023-03-29T00:19:18.979Z,91.16
2023-03-29T00:19:29.472Z,91.27
2023-03-29T00:19:39.999Z,91.37
2023-03-29T00:19:50.501Z,91.47
2023-03-29T00:20:00.996Z,91.47
2023-03-29T00:20:11.502Z,91.58
2023-03-29T00:20:22.013Z,91.58
2023-03-29T00:20:32.517Z,91.47
2023-03-29T00:20:43.019Z,91.37
2023-03-29T00:20:53.526Z,91.27
2023-03-29T00:21:04.480Z,91.27
2023-03-29T00:21:14.537Z,91.27
2023-03-29T00:21:25.046Z,91.27
2023-03-29T00:21:35.557Z,91.16
2023-03-29T00:21:46.064Z,91.16
2023-03-29T00:21:56.578Z,91.27
2023-03-29T00:22:07.069Z,91.27
2023-03-29T00:22:17.571Z,91.27
2023-03-29T00:22:28.080Z,91.27
2023-03-29T00:22:38.583Z,91.37
2023-03-29T00:22:49.092Z,91.47
2023-03-29T00:22:59.596Z,91.58
2023-03-29T00:23:10.106Z,91.68
2023-03-29T00:23:20.614Z,91.78
2023-03-29T00:23:31.124Z,91.78
2023-03-29T00:23:41.622Z,91.78
2023-03-29T00:23:52.129Z,91.78
2023-03-29T00:24:02.635Z,91.68
2023-03-29T00:24:13.139Z,91.68
2023-03-29T00:24:23.653Z,91.68
2023-03-29T00:24:34.159Z,91.58
2023-03-29T00:24:44.661Z,91.58
2023-03-29T00:24:55.178Z,91.58
2023-03-29T00:25:05.667Z,91.58
2023-03-29T00:25:16.178Z,91.47
2023-03-29T00:25:26.685Z,91.47
2023-03-29T00:25:37.197Z,91.47
2023-03-29T00:25:47.698Z,91.37
2023-03-29T00:25:58.199Z,91.37
2023-03-29T00:26:08.714Z,91.37
2023-03-29T00:26:19.218Z,91.37
2023-03-29T00:26:29.726Z,91.47
2023-03-29T00:26:40.230Z,91.47
2023-03-29T00:26:50.732Z,91.37
2023-03-29T00:27:01.265Z,91.37
2023-03-29T00:27:11.740Z,91.37
2023-03-29T00:27:22.254Z,91.37
2023-03-29T00:27:32.750Z,91.47
2023-03-29T00:27:43.259Z,91.47
2023-03-29T00:27:53.768Z,91.47
2023-03-29T00:28:04.268Z,91.47
2023-03-29T00:28:14.787Z,91.58
2023-03-29T00:28:25.286Z,91.58
2023-03-29T00:28:35.791Z,91.58
2023-03-29T00:28:46.291Z,91.68
2023-03-29T00:28:56.808Z,91.68
2023-03-29T00:29:07.317Z,91.68
2023-03-29T00:29:17.835Z,91.78
2023-03-29T00:29:28.336Z,91.78
2023-03-29T00:29:38.829Z,91.78
2023-03-29T00:29:49.345Z,91.78
2023-03-29T00:29:59.870Z,91.78
2023-03-29T00:30:10.386Z,91.89
2023-03-29T00:30:20.861Z,91.99
2023-03-29T00:30:31.367Z,91.99
2023-03-29T00:30:41.885Z,91.99
2023-03-29T00:30:52.382Z,91.99
2023-03-29T00:31:03.068Z,91.99
2023-03-29T00:31:13.415Z,91.99
2023-03-29T00:31:23.950Z,91.99
2023-03-29T00:31:34.466Z,91.89
2023-03-29T00:31:44.970Z,91.89
2023-03-29T00:31:55.465Z,91.89
2023-03-29T00:32:05.942Z,91.99
2023-03-29T00:32:16.466Z,91.99
2023-03-29T00:32:26.980Z,91.99
2023-03-29T00:32:37.488Z,91.89
2023-03-29T00:32:48.063Z,91.89
2023-03-29T00:32:58.511Z,91.89
2023-03-29T00:33:09.020Z,91.89
2023-03-29T00:33:19.500Z,91.89
2023-03-29T00:33:30.010Z,91.89
2023-03-29T00:33:40.528Z,91.99
2023-03-29T00:33:51.021Z,91.99
2023-03-29T00:34:01.530Z,92.10
2023-03-29T00:34:12.034Z,92.20
2023-03-29T00:34:22.550Z,92.30
2023-03-29T00:34:33.077Z,92.30
2023-03-29T00:34:43.563Z,92.41
2023-03-29T00:34:54.069Z,92.41
2023-03-29T00:35:04.589Z,92.41
2023-03-29T00:35:15.086Z,92.41
2023-03-29T00:35:25.627Z,92.41
2023-03-29T00:35:36.121Z,92.41
2023-03-29T00:35:46.665Z,92.41
2023-03-29T00:35:57.228Z,92.41
2023-03-29T00:36:07.672Z,92.41
2023-03-29T00:36:18.145Z,92.41
2023-03-29T00:36:28.640Z,92.41
2023-03-29T00:36:39.138Z,92.41
2023-03-29T00:36:49.637Z,92.41
2023-03-29T00:37:00.138Z,92.41
2023-03-29T00:37:10.670Z,92.30
2023-03-29T00:37:21.146Z,92.30
2023-03-29T00:37:31.645Z,92.30
2023-03-29T00:37:42.155Z,92.30
2023-03-29T00:37:52.671Z,92.30
2023-03-29T00:38:03.169Z,92.30
2023-03-29T00:38:13.678Z,92.30
2023-03-29T00:38:24.181Z,92.41
2023-03-29T00:38:34.698Z,92.30
2023-03-29T00:38:45.199Z,92.45
2023-03-29T00:38:55.699Z,92.41
2023-03-29T00:39:06.200Z,92.45
2023-03-29T00:39:16.705Z,92.45
2023-03-29T00:39:27.224Z,92.45
2023-03-29T00:39:37.729Z,92.51
2023-03-29T00:39:48.278Z,92.55
2023-03-29T00:39:58.737Z,92.45
2023-03-29T00:40:09.257Z,92.45
2023-03-29T00:40:19.743Z,92.45
2023-03-29T00:40:30.258Z,92.45
2023-03-29T00:40:40.757Z,92.55
2023-03-29T00:40:51.270Z,92.55
2023-03-29T00:41:02.006Z,92.55
2023-03-29T00:41:12.273Z,92.55
2023-03-29T00:41:22.786Z,92.66
2023-03-29T00:41:33.303Z,92.66
2023-03-29T00:41:43.803Z,92.66
2023-03-29T00:41:54.301Z,92.66
2023-03-29T00:42:04.797Z,92.66
2023-03-29T00:42:15.330Z,92.66
2023-03-29T00:42:25.817Z,92.76
2023-03-29T00:42:36.314Z,92.86
2023-03-29T00:42:46.834Z,92.86
2023-03-29T00:42:57.332Z,92.86
2023-03-29T00:43:07.865Z,92.86
2023-03-29T00:43:18.351Z,92.86
2023-03-29T00:43:28.848Z,92.76
2023-03-29T00:43:39.360Z,92.66
2023-03-29T00:43:49.855Z,92.55
2023-03-29T00:44:00.369Z,92.66
2023-03-29T00:44:10.865Z,92.66
2023-03-29T00:44:21.369Z,92.66
2023-03-29T00:44:31.870Z,92.76
2023-03-29T00:44:42.462Z,92.76
2023-03-29T00:44:52.881Z,92.76
2023-03-29T00:45:03.422Z,92.76
2023-03-29T00:45:13.905Z,92.76
2023-03-29T00:45:24.401Z,92.76
2023-03-29T00:45:34.900Z,92.86
2023-03-29T00:45:45.410Z,92.86
2023-03-29T00:45:55.998Z,92.97
2023-03-29T00:46:06.436Z,92.97
2023-03-29T00:46:16.935Z,92.97
2023-03-29T00:46:27.487Z,92.97
2023-03-29T00:46:37.968Z,93.07
2023-03-29T00:46:48.506Z,92.97
2023-03-29T00:46:58.947Z,92.97
2023-03-29T00:47:09.456Z,92.97
2023-03-29T00:47:19.962Z,92.97
2023-03-29T00:47:30.480Z,92.97
2023-03-29T00:47:41.016Z,92.97
2023-03-29T00:47:51.557Z,92.97
2023-03-29T00:48:02.006Z,92.97
2023-03-29T00:48:12.560Z,92.97
2023-03-29T00:48:22.985Z,92.97
2023-03-29T00:48:33.485Z,92.97
2023-03-29T00:48:43.989Z,92.97
2023-03-29T00:48:54.497Z,93.07
2023-03-29T00:49:05.024Z,93.28
2023-03-29T00:49:15.525Z,93.28
2023-03-29T00:49:26.012Z,93.18
2023-03-29T00:49:36.515Z,93.07
2023-03-29T00:49:47.037Z,92.97
2023-03-29T00:49:57.531Z,92.97
2023-03-29T00:50:08.028Z,92.97
2023-03-29T00:50:18.542Z,92.97
2023-03-29T00:50:29.041Z,92.97
2023-03-29T00:50:39.550Z,92.97
2023-03-29T00:50:50.065Z,93.07
2023-03-29T00:51:00.758Z,93.07
2023-03-29T00:51:11.060Z,93.07
2023-03-29T00:51:21.576Z,93.07
2023-03-29T00:51:32.082Z,93.07
2023-03-29T00:51:42.593Z,92.97
2023-03-29T00:51:53.083Z,92.97
2023-03-29T00:52:03.629Z,93.07
2023-03-29T00:52:14.109Z,92.97
2023-03-29T00:52:24.602Z,92.86
2023-03-29T00:52:35.140Z,92.76
2023-03-29T00:52:45.614Z,92.76
2023-03-29T00:52:56.120Z,92.66
2023-03-29T00:53:06.630Z,92.66
2023-03-29T00:53:17.153Z,92.76
2023-03-29T00:53:27.640Z,92.66
2023-03-29T00:53:38.144Z,92.66
2023-03-29T00:53:48.697Z,92.66
2023-03-29T00:53:59.156Z,92.66
2023-03-29T00:54:09.663Z,92.66
2023-03-29T00:54:20.162Z,92.76
2023-03-29T00:54:30.678Z,92.76
2023-03-29T00:54:41.190Z,92.76
2023-03-29T00:54:51.683Z,92.76
2023-03-29T00:55:02.191Z,92.66
2023-03-29T00:55:12.694Z,92.66
2023-03-29T00:55:23.213Z,92.76
2023-03-29T00:55:33.717Z,92.76
2023-03-29T00:55:44.252Z,92.76
2023-03-29T00:55:54.730Z,92.86
2023-03-29T00:56:05.277Z,92.76
2023-03-29T00:56:15.747Z,92.76
2023-03-29T00:56:26.269Z,92.76
2023-03-29T00:56:36.922Z,92.76
2023-03-29T00:56:47.319Z,92.72
2023-03-29T00:56:57.793Z,92.76
2023-03-29T00:57:08.335Z,92.86
2023-03-29T00:57:18.822Z,92.82
2023-03-29T00:57:29.323Z,92.86
2023-03-29T00:57:39.831Z,92.86
2023-03-29T00:57:50.301Z,92.93
2023-03-29T00:58:00.843Z,92.93
2023-03-29T00:58:11.340Z,92.93
2023-03-29T00:58:21.821Z,92.82
2023-03-29T00:58:32.331Z,92.82
2023-03-29T00:58:42.833Z,92.93
2023-03-29T00:58:53.344Z,92.86
2023-03-29T00:59:03.868Z,92.97
2023-03-29T00:59:14.361Z,92.93
2023-03-29T00:59:24.867Z,92.82
2023-03-29T00:59:35.373Z,92.82
2023-03-29T00:59:45.877Z,92.86
2023-03-29T00:59:56.385Z,92.86
2023-03-29T01:00:06.925Z,92.86
2023-03-29T01:00:17.419Z,92.97
2023-03-29T01:00:27.921Z,92.97
2023-03-29T01:00:38.404Z,92.97
2023-03-29T01:00:48.918Z,92.97
2023-03-29T01:00:59.606Z,93.07
2023-03-29T01:01:09.926Z,93.02
2023-03-29T01:01:20.521Z,93.02
2023-03-29T01:01:30.984Z,93.07
2023-03-29T01:01:41.480Z,92.97
2023-03-29T01:01:51.996Z,92.86
2023-03-29T01:02:02.581Z,92.86
2023-03-29T01:02:12.980Z,92.86
2023-03-29T01:02:23.488Z,92.86
2023-03-29T01:02:34.179Z,92.86
2023-03-29T01:02:44.563Z,92.86
2023-03-29T01:02:55.152Z,92.86
2023-03-29T01:03:05.613Z,92.86
2023-03-29T01:03:16.088Z,92.86
2023-03-29T01:03:26.624Z,92.86
2023-03-29T01:03:37.113Z,92.86
2023-03-29T01:03:47.632Z,92.86
2023-03-29T01:03:58.066Z,92.86
2023-03-29T01:04:08.639Z,92.86
2023-03-29T01:04:19.089Z,92.86
2023-03-29T01:04:29.687Z,92.86
2023-03-29T01:04:40.069Z,92.86
2023-03-29T01:04:50.571Z,92.86
2023-03-29T01:05:01.068Z,92.86
2023-03-29T01:05:11.580Z,92.76
2023-03-29T01:05:22.083Z,92.86
2023-03-29T01:05:32.588Z,92.86
2023-03-29T01:05:43.092Z,92.86
2023-03-29T01:05:53.592Z,92.86
2023-03-29T01:06:04.112Z,92.86
2023-03-29T01:06:14.611Z,92.86
2023-03-29T01:06:25.159Z,92.86
2023-03-29T01:06:35.722Z,92.97
2023-03-29T01:06:46.171Z,92.97
2023-03-29T01:06:56.672Z,92.97
2023-03-29T01:07:07.279Z,93.07
2023-03-29T01:07:17.678Z,93.07
2023-03-29T01:07:28.145Z,93.07
2023-03-29T01:07:38.643Z,93.07
2023-03-29T01:07:49.150Z,93.07
2023-03-29T01:07:59.652Z,93.07
2023-03-29T01:08:10.174Z,93.07
2023-03-29T01:08:20.669Z,92.97
2023-03-29T01:08:31.176Z,92.97
2023-03-29T01:08:41.707Z,92.97
2023-03-29T01:08:52.196Z,92.97
2023-03-29T01:09:02.693Z,92.97
2023-03-29T01:09:13.197Z,92.97
2023-03-29T01:09:23.736Z,92.97
2023-03-29T01:09:34.235Z,92.97
2023-03-29T01:09:44.715Z,93.07
2023-03-29T01:09:55.224Z,93.07
2023-03-29T01:10:05.730Z,93.07
2023-03-29T01:10:16.248Z,93.07
2023-03-29T01:10:26.736Z,93.18
2023-03-29T01:10:37.257Z,93.18
2023-03-29T01:10:47.749Z,93.28
2023-03-29T01:10:58.270Z,93.28
2023-03-29T01:11:08.781Z,93.28
2023-03-29T01:11:19.274Z,93.28
2023-03-29T01:11:29.782Z,93.28
2023-03-29T01:11:40.317Z,93.28
2023-03-29T01:11:50.800Z,93.28
2023-03-29T01:12:01.301Z,93.18
2023-03-29T01:12:11.806Z,93.18
2023-03-29T01:12:22.313Z,93.18
2023-03-29T01:12:32.837Z,93.28
2023-03-29T01:12:43.320Z,93.28
2023-03-29T01:12:53.825Z,93.28
2023-03-29T01:13:04.334Z,93.28
2023-03-29T01:13:14.862Z,93.28
2023-03-29T01:13:25.343Z,93.38
2023-03-29T01:13:35.845Z,93.49
2023-03-29T01:13:46.365Z,93.49
2023-03-29T01:13:56.857Z,93.49
2023-03-29T01:14:07.380Z,93.49
2023-03-29T01:14:17.897Z,93.59
2023-03-29T01:14:28.371Z,93.59
2023-03-29T01:14:38.880Z,93.70
2023-03-29T01:14:49.383Z,93.80
2023-03-29T01:14:59.889Z,93.80
2023-03-29T01:15:10.418Z,93.80
2023-03-29T01:15:20.902Z,93.70
2023-03-29T01:15:31.410Z,93.70
2023-03-29T01:15:41.934Z,93.70
2023-03-29T01:15:52.418Z,93.70
2023-03-29T01:16:02.985Z,93.70
2023-03-29T01:16:13.483Z,93.80
2023-03-29T01:16:23.952Z,93.80
2023-03-29T01:16:34.456Z,93.90
2023-03-29T01:16:45.011Z,94.01
2023-03-29T01:16:55.493Z,94.01
2023-03-29T01:17:05.948Z,94.01
2023-03-29T01:17:16.457Z,94.11
2023-03-29T01:17:26.982Z,94.21
2023-03-29T01:17:37.540Z,94.32
2023-03-29T01:17:48.027Z,94.42
2023-03-29T01:17:58.698Z,94.63
2023-03-29T01:18:09.040Z,94.73
2023-03-29T01:18:19.490Z,94.84
2023-03-29T01:18:29.991Z,94.84
2023-03-29T01:18:40.503Z,94.73
2023-03-29T01:18:50.991Z,94.73
2023-03-29T01:19:01.497Z,94.73
2023-03-29T01:19:12.002Z,94.73
2023-03-29T01:19:22.505Z,94.84
2023-03-29T01:19:33.016Z,94.84
2023-03-29T01:19:43.525Z,94.94
2023-03-29T01:19:54.019Z,95.04
2023-03-29T01:20:04.554Z,95.04
2023-03-29T01:20:15.034Z,95.19
2023-03-29T01:20:25.544Z,95.15
2023-03-29T01:20:36.042Z,95.29
2023-03-29T01:20:46.584Z,95.29
2023-03-29T01:20:57.067Z,95.29
2023-03-29T01:21:07.563Z,95.29
2023-03-29T01:21:18.058Z,95.40
2023-03-29T01:21:28.570Z,95.71
2023-03-29T01:21:39.069Z,95.92
2023-03-29T01:21:49.576Z,96.02
2023-03-29T01:22:00.109Z,96.12
2023-03-29T01:22:10.595Z,96.23
2023-03-29T01:22:21.087Z,96.23
2023-03-29T01:22:31.610Z,96.23
2023-03-29T01:22:42.109Z,96.33
2023-03-29T01:22:52.611Z,96.33
2023-03-29T01:23:03.114Z,96.33
2023-03-29T01:23:13.633Z,96.33
2023-03-29T01:23:24.123Z,96.44
2023-03-29T01:23:34.629Z,96.44
2023-03-29T01:23:45.144Z,96.44
2023-03-29T01:23:55.648Z,96.54
2023-03-29T01:24:06.146Z,96.54
2023-03-29T01:24:16.652Z,96.64
2023-03-29T01:24:27.175Z,96.64
2023-03-29T01:24:37.669Z,96.64
2023-03-29T01:24:48.184Z,96.75
2023-03-29T01:24:58.672Z,96.75
2023-03-29T01:25:09.173Z,96.75
2023-03-29T01:25:19.718Z,96.75
2023-03-29T01:25:30.185Z,96.75
2023-03-29T01:25:40.690Z,96.75
2023-03-29T01:25:51.237Z,96.75
2023-03-29T01:26:01.713Z,96.75
2023-03-29T01:26:12.197Z,96.75
2023-03-29T01:26:22.711Z,96.75
2023-03-29T01:26:33.220Z,96.75
2023-03-29T01:26:43.710Z,96.64
2023-03-29T01:26:54.213Z,96.75
2023-03-29T01:27:04.721Z,96.75
2023-03-29T01:27:15.219Z,96.85
2023-03-29T01:27:25.735Z,96.85
2023-03-29T01:27:36.253Z,96.85
2023-03-29T01:27:46.745Z,96.95
2023-03-29T01:27:57.261Z,96.95
2023-03-29T01:28:07.751Z,96.95
2023-03-29T01:28:18.245Z,96.95
2023-03-29T01:28:28.757Z,96.85
2023-03-29T01:28:39.262Z,96.85
2023-03-29T01:28:49.765Z,96.75
2023-03-29T01:29:00.271Z,96.64
2023-03-29T01:29:10.775Z,96.64
2023-03-29T01:29:21.282Z,96.54
2023-03-29T01:29:31.783Z,96.54
2023-03-29T01:29:42.290Z,96.54
2023-03-29T01:29:52.815Z,96.54
2023-03-29T01:30:03.304Z,96.54
2023-03-29T01:30:13.879Z,96.64
2023-03-29T01:30:24.304Z,96.75
2023-03-29T01:30:34.803Z,96.85
2023-03-29T01:30:45.318Z,96.95
2023-03-29T01:30:55.816Z,96.95
2023-03-29T01:31:06.323Z,97.06
2023-03-29T01:31:16.859Z,97.06
2023-03-29T01:31:27.370Z,97.16
2023-03-29T01:31:37.899Z,97.16
2023-03-29T01:31:48.386Z,97.16
2023-03-29T01:31:58.843Z,97.27
2023-03-29T01:32:09.441Z,97.27
2023-03-29T01:32:19.847Z,97.27
2023-03-29T01:32:30.405Z,97.27
2023-03-29T01:32:40.919Z,97.37
2023-03-29T01:32:51.377Z,97.37
2023-03-29T01:33:01.924Z,97.47
2023-03-29T01:33:12.375Z,97.47
2023-03-29T01:33:22.884Z,97.47
2023-03-29T01:33:33.381Z,97.58
2023-03-29T01:33:43.894Z,97.58
2023-03-29T01:33:54.392Z,97.68
2023-03-29T01:34:04.904Z,97.68
2023-03-29T01:34:15.410Z,97.78
2023-03-29T01:34:25.927Z,97.78
2023-03-29T01:34:36.436Z,97.89
2023-03-29T01:34:46.938Z,97.89
2023-03-29T01:34:57.435Z,97.89
2023-03-29T01:35:07.942Z,97.99
2023-03-29T01:35:18.483Z,97.99
2023-03-29T01:35:28.954Z,97.99
2023-03-29T01:35:39.483Z,97.99
2023-03-29T01:35:49.979Z,97.99
2023-03-29T01:36:00.501Z,97.99
2023-03-29T01:36:11.016Z,97.99
2023-03-29T01:36:21.491Z,98.10
2023-03-29T01:36:32.002Z,98.10
2023-03-29T01:36:42.511Z,98.10
2023-03-29T01:36:52.990Z,98.10
2023-03-29T01:37:03.581Z,97.99
2023-03-29T01:37:14.037Z,97.99
2023-03-29T01:37:24.526Z,97.99
2023-03-29T01:37:35.018Z,97.89
2023-03-29T01:37:45.521Z,97.89
2023-03-29T01:37:56.031Z,97.89
2023-03-29T01:38:06.542Z,97.89
2023-03-29T01:38:17.047Z,97.89
2023-03-29T01:38:27.552Z,97.78
2023-03-29T01:38:38.056Z,97.89
2023-03-29T01:38:48.564Z,97.78
2023-03-29T01:38:59.074Z,97.89
2023-03-29T01:39:09.584Z,97.89
2023-03-29T01:39:20.084Z,97.89
2023-03-29T01:39:30.589Z,97.89
2023-03-29T01:39:41.096Z,97.99
2023-03-29T01:39:51.596Z,97.99
2023-03-29T01:40:02.110Z,97.99
2023-03-29T01:40:12.618Z,98.10
2023-03-29T01:40:23.122Z,98.10
2023-03-29T01:40:33.631Z,98.10
2023-03-29T01:40:44.131Z,98.20
2023-03-29T01:40:54.634Z,98.20
2023-03-29T01:41:05.180Z,98.20
2023-03-29T01:41:15.657Z,98.30
2023-03-29T01:41:26.147Z,98.30
2023-03-29T01:41:36.653Z,98.30
2023-03-29T01:41:47.157Z,98.30
2023-03-29T01:41:57.673Z,98.41
2023-03-29T01:42:08.180Z,98.41
2023-03-29T01:42:18.702Z,98.41
2023-03-29T01:42:29.180Z,98.41
2023-03-29T01:42:39.683Z,98.30
2023-03-29T01:42:50.193Z,98.20
2023-03-29T01:43:00.699Z,98.10
2023-03-29T01:43:11.210Z,97.89
2023-03-29T01:43:21.715Z,97.78
2023-03-29T01:43:32.222Z,97.68
2023-03-29T01:43:42.724Z,97.68
2023-03-29T01:43:53.234Z,97.68
2023-03-29T01:44:03.727Z,97.68
2023-03-29T01:44:14.240Z,97.78
2023-03-29T01:44:24.751Z,97.78
2023-03-29T01:44:35.260Z,97.78
2023-03-29T01:44:45.782Z,97.78
2023-03-29T01:44:56.269Z,97.89
2023-03-29T01:45:06.777Z,97.89
2023-03-29T01:45:17.305Z,97.89
2023-03-29T01:45:27.785Z,97.99
2023-03-29T01:45:38.285Z,97.99
2023-03-29T01:45:48.855Z,98.10
2023-03-29T01:45:59.325Z,98.10
2023-03-29T01:46:09.816Z,98.10
2023-03-29T01:46:20.358Z,98.20
2023-03-29T01:46:30.843Z,98.20
2023-03-29T01:46:41.316Z,98.20
2023-03-29T01:46:51.840Z,98.20
2023-03-29T01:47:02.329Z,98.20
2023-03-29T01:47:12.829Z,98.20
2023-03-29T01:47:23.356Z,98.20
2023-03-29T01:47:33.892Z,98.20
2023-03-29T01:47:44.365Z,98.20
2023-03-29T01:47:54.857Z,98.24
2023-03-29T01:48:05.391Z,98.20
2023-03-29T01:48:15.846Z,98.20
2023-03-29T01:48:26.358Z,98.35
2023-03-29T01:48:36.869Z,98.30
2023-03-29T01:48:47.366Z,98.30
2023-03-29T01:48:57.871Z,98.41
2023-03-29T01:49:08.377Z,98.41
2023-03-29T01:49:18.877Z,98.30
2023-03-29T01:49:29.393Z,98.30
2023-03-29T01:49:39.891Z,98.24
2023-03-29T01:49:50.404Z,98.24
2023-03-29T01:50:00.922Z,98.24
2023-03-29T01:50:11.411Z,98.24
2023-03-29T01:50:21.912Z,98.14
2023-03-29T01:50:32.416Z,98.24
2023-03-29T01:50:42.924Z,98.20
2023-03-29T01:50:53.446Z,98.20
2023-03-29T01:51:04.281Z,98.24
2023-03-29T01:51:14.432Z,98.30
2023-03-29T01:51:24.934Z,98.30
2023-03-29T01:51:35.445Z,98.30
2023-03-29T01:51:45.963Z,98.45
2023-03-29T01:51:56.454Z,98.41
2023-03-29T01:52:06.962Z,98.41
2023-03-29T01:52:17.495Z,98.45
2023-03-29T01:52:27.970Z,98.51
2023-03-29T01:52:38.485Z,98.55
2023-03-29T01:52:48.990Z,98.55
2023-03-29T01:52:59.496Z,98.51
2023-03-29T01:53:10.004Z,98.51
2023-03-29T01:53:20.529Z,98.55
2023-03-29T01:53:31.013Z,98.55
2023-03-29T01:53:41.523Z,98.55
2023-03-29T01:53:52.032Z,98.55
2023-03-29T01:54:02.548Z,98.55
2023-03-29T01:54:13.047Z,98.55
2023-03-29T01:54:23.548Z,98.51
2023-03-29T01:54:34.052Z,98.61
2023-03-29T01:54:44.570Z,98.66
2023-03-29T01:54:55.065Z,98.66
2023-03-29T01:55:05.567Z,98.66
2023-03-29T01:55:16.085Z,98.66
2023-03-29T01:55:26.581Z,98.66
2023-03-29T01:55:37.086Z,98.66
2023-03-29T01:55:47.596Z,98.61
2023-03-29T01:55:58.098Z,98.66
2023-03-29T01:56:08.616Z,98.61
2023-03-29T01:56:19.117Z,98.61
2023-03-29T01:56:29.627Z,98.61
2023-03-29T01:56:40.157Z,98.61
2023-03-29T01:56:50.652Z,98.66
2023-03-29T01:57:01.157Z,98.61
2023-03-29T01:57:11.753Z,98.66
2023-03-29T01:57:22.259Z,98.61
2023-03-29T01:57:32.648Z,98.61
2023-03-29T01:57:43.159Z,98.61
2023-03-29T01:57:53.656Z,98.51
2023-03-29T01:58:04.160Z,98.51
2023-03-29T01:58:14.675Z,98.45
2023-03-29T01:58:25.181Z,98.35
2023-03-29T01:58:35.693Z,98.24
2023-03-29T01:58:46.190Z,98.24
2023-03-29T01:58:56.693Z,98.10
2023-03-29T01:59:07.244Z,98.14
2023-03-29T01:59:17.709Z,98.14
2023-03-29T01:59:28.246Z,98.14
2023-03-29T01:59:38.722Z,98.14
2023-03-29T01:59:49.227Z,98.14
2023-03-29T01:59:59.722Z,98.14
2023-03-29T02:00:10.242Z,98.03
2023-03-29T02:00:20.762Z,98.03
2023-03-29T02:00:31.248Z,98.03
2023-03-29T02:00:41.753Z,98.03
2023-03-29T02:00:52.256Z,98.03
2023-03-29T02:01:03.023Z,98.14
2023-03-29T02:01:13.281Z,98.14
2023-03-29T02:01:23.837Z,98.14
2023-03-29T02:01:34.302Z,98.14
2023-03-29T02:01:44.807Z,98.14
2023-03-29T02:01:55.361Z,98.03
2023-03-29T02:02:05.830Z,98.03
2023-03-29T02:02:16.318Z,98.03
2023-03-29T02:02:26.905Z,98.03
2023-03-29T02:02:37.441Z,97.93
2023-03-29T02:02:47.930Z,98.03
2023-03-29T02:02:58.419Z,98.03
2023-03-29T02:03:08.973Z,98.03
2023-03-29T02:03:19.418Z,98.03
2023-03-29T02:03:29.956Z,98.14
2023-03-29T02:03:40.394Z,98.14
2023-03-29T02:03:50.856Z,98.14
2023-03-29T02:04:01.346Z,98.24
2023-03-29T02:04:11.897Z,98.24
2023-03-29T02:04:22.349Z,98.35
2023-03-29T02:04:32.865Z,98.35
2023-03-29T02:04:43.366Z,98.45
2023-03-29T02:04:53.897Z,98.45
2023-03-29T02:05:04.396Z,98.55
2023-03-29T02:05:14.901Z,98.55
2023-03-29T02:05:25.395Z,98.66
2023-03-29T02:05:35.903Z,98.76
2023-03-29T02:05:46.402Z,98.76
2023-03-29T02:05:56.912Z,98.86
2023-03-29T02:06:07.416Z,98.86
2023-03-29T02:06:17.941Z,98.97
2023-03-29T02:06:28.453Z,98.97
2023-03-29T02:06:38.938Z,98.97
2023-03-29T02:06:49.446Z,98.97
2023-03-29T02:06:59.951Z,98.97
2023-03-29T02:07:10.456Z,98.97
2023-03-29T02:07:20.958Z,98.97
2023-03-29T02:07:31.460Z,98.97
2023-03-29T02:07:41.981Z,98.86
2023-03-29T02:07:52.481Z,98.86
2023-03-29T02:08:02.980Z,98.86
2023-03-29T02:08:13.485Z,98.86
2023-03-29T02:08:23.993Z,98.86
2023-03-29T02:08:34.500Z,98.76
2023-03-29T02:08:45.042Z,98.76
2023-03-29T02:08:55.515Z,98.66
2023-03-29T02:09:06.023Z,98.66
2023-03-29T02:09:16.560Z,98.66
2023-03-29T02:09:27.052Z,98.55
2023-03-29T02:09:37.538Z,98.55
2023-03-29T02:09:48.043Z,98.55
2023-03-29T02:09:58.547Z,98.55
2023-03-29T02:10:09.071Z,98.55
2023-03-29T02:10:19.561Z,98.55
2023-03-29T02:10:30.069Z,98.55
2023-03-29T02:10:40.575Z,98.55
2023-03-29T02:10:51.084Z,98.55
2023-03-29T02:11:01.885Z,98.45
2023-03-29T02:11:12.098Z,98.24
2023-03-29T02:11:22.600Z,98.14
2023-03-29T02:11:33.110Z,98.03
2023-03-29T02:11:43.616Z,97.93
2023-03-29T02:11:54.141Z,97.83
2023-03-29T02:12:04.627Z,97.83
2023-03-29T02:12:15.129Z,97.83
2023-03-29T02:12:25.635Z,97.83
2023-03-29T02:12:36.135Z,97.83
2023-03-29T02:12:46.643Z,97.83
2023-03-29T02:12:57.149Z,97.78
2023-03-29T02:13:07.669Z,97.68
2023-03-29T02:13:18.155Z,97.78
2023-03-29T02:13:28.690Z,97.78
2023-03-29T02:13:39.173Z,97.68
2023-03-29T02:13:49.670Z,97.68
2023-03-29T02:14:00.176Z,97.68
2023-03-29T02:14:10.683Z,97.78
2023-03-29T02:14:21.193Z,97.78
2023-03-29T02:14:31.696Z,97.78
2023-03-29T02:14:42.203Z,97.78
2023-03-29T02:14:52.715Z,97.78
2023-03-29T02:15:03.215Z,97.78
2023-03-29T02:15:13.720Z,97.78